sensor_id;sensor_type;location;lat;lon;timestamp;pressure;altitude;pressure_sealevel;temperature;humidity
18784;BME280;9520;50.954;6.968;2023-12-29T00:00:01;100519.03;;;17.69;43.72
18784;BME280;9520;50.954;6.968;2023-12-29T00:00:26;100533.66;;;17.79;43.67
18784;BME280;9520;50.954;6.968;2023-12-29T00:00:48;100540.63;;;17.82;43.80
18784;BME280;9520;50.954;6.968;2023-12-29T00:01:10;100502.38;;;17.64;43.66
18784;BME280;9520;50.954;6.968;2023-12-29T00:01:32;100538.84;;;17.82;43.56
18784;BME280;9520;50.954;6.968;2023-12-29T00:01:54;100536.16;;;17.82;43.77
18784;BME280;9520;50.954;6.968;2023-12-29T00:02:17;100536.91;;;17.86;43.66
18784;BME280;9520;50.954;6.968;2023-12-29T00:02:39;100532.63;;;17.82;43.33
18784;BME280;9520;50.954;6.968;2023-12-29T00:03:00;100530.53;;;17.88;43.46
18784;BME280;9520;50.954;6.968;2023-12-29T00:03:23;100536.75;;;17.89;43.54
18784;BME280;9520;50.954;6.968;2023-12-29T00:03:45;100528.69;;;17.90;43.35
18784;BME280;9520;50.954;6.968;2023-12-29T00:04:06;100535.72;;;17.91;43.67
18784;BME280;9520;50.954;6.968;2023-12-29T00:04:28;100535.94;;;17.87;43.45
18784;BME280;9520;50.954;6.968;2023-12-29T00:04:50;100534.94;;;17.89;43.83
18784;BME280;9520;50.954;6.968;2023-12-29T00:05:11;100534.94;;;17.89;43.75
18784;BME280;9520;50.954;6.968;2023-12-29T00:05:34;100539.34;;;17.90;43.63
18784;BME280;9520;50.954;6.968;2023-12-29T00:05:56;100535.88;;;17.88;43.47
18784;BME280;9520;50.954;6.968;2023-12-29T00:06:18;100526.78;;;17.92;43.36
18784;BME280;9520;50.954;6.968;2023-12-29T00:06:39;100528.53;;;17.93;43.30
18784;BME280;9520;50.954;6.968;2023-12-29T00:07:17;100533.00;;;17.93;43.31
18784;BME280;9520;50.954;6.968;2023-12-29T00:07:42;100530.78;;;17.84;43.37
18784;BME280;9520;50.954;6.968;2023-12-29T00:08:06;100529.75;;;17.86;43.37
18784;BME280;9520;50.954;6.968;2023-12-29T00:08:27;100528.81;;;17.87;43.41
18784;BME280;9520;50.954;6.968;2023-12-29T00:08:49;100525.22;;;17.88;43.40
18784;BME280;9520;50.954;6.968;2023-12-29T00:09:11;100525.91;;;17.92;43.13
18784;BME280;9520;50.954;6.968;2023-12-29T00:09:34;100529.09;;;17.81;43.26
18784;BME280;9520;50.954;6.968;2023-12-29T00:10:02;100527.16;;;17.85;43.20
18784;BME280;9520;50.954;6.968;2023-12-29T00:10:25;100526.53;;;17.80;43.30
18784;BME280;9520;50.954;6.968;2023-12-29T00:10:46;100498.13;;;17.60;43.44
18784;BME280;9520;50.954;6.968;2023-12-29T00:11:16;100514.13;;;17.79;43.46
18784;BME280;9520;50.954;6.968;2023-12-29T00:11:38;100515.41;;;17.70;43.55
18784;BME280;9520;50.954;6.968;2023-12-29T00:11:59;100521.03;;;17.64;43.76
18784;BME280;9520;50.954;6.968;2023-12-29T00:12:22;100516.69;;;17.61;43.63
18784;BME280;9520;50.954;6.968;2023-12-29T00:12:45;100532.38;;;17.49;44.07
18784;BME280;9520;50.954;6.968;2023-12-29T00:13:07;100526.78;;;17.55;43.84
18784;BME280;9520;50.954;6.968;2023-12-29T00:13:29;100524.31;;;17.50;43.93
18784;BME280;9520;50.954;6.968;2023-12-29T00:13:50;100528.34;;;17.40;44.03
18784;BME280;9520;50.954;6.968;2023-12-29T00:14:13;100527.22;;;17.25;44.36
18784;BME280;9520;50.954;6.968;2023-12-29T00:14:37;100513.94;;;17.05;44.74
18784;BME280;9520;50.954;6.968;2023-12-29T00:14:58;100521.44;;;17.16;44.62
18784;BME280;9520;50.954;6.968;2023-12-29T00:15:20;100527.44;;;17.21;44.76
18784;BME280;9520;50.954;6.968;2023-12-29T00:15:42;100522.09;;;17.21;44.69
18784;BME280;9520;50.954;6.968;2023-12-29T00:16:05;100528.47;;;17.17;44.44
18784;BME280;9520;50.954;6.968;2023-12-29T00:16:28;100532.81;;;17.19;44.53
18784;BME280;9520;50.954;6.968;2023-12-29T00:16:49;100528.69;;;17.12;44.75
18784;BME280;9520;50.954;6.968;2023-12-29T00:17:11;100519.84;;;17.12;44.61
18784;BME280;9520;50.954;6.968;2023-12-29T00:17:33;100518.03;;;17.12;44.52
18784;BME280;9520;50.954;6.968;2023-12-29T00:17:58;100521.66;;;17.11;44.54
18784;BME280;9520;50.954;6.968;2023-12-29T00:18:22;100509.19;;;17.12;44.69
18784;BME280;9520;50.954;6.968;2023-12-29T00:18:43;100525.50;;;17.24;44.67
18784;BME280;9520;50.954;6.968;2023-12-29T00:19:06;100519.03;;;17.30;44.59
18784;BME280;9520;50.954;6.968;2023-12-29T00:19:27;100524.09;;;17.36;44.74
18784;BME280;9520;50.954;6.968;2023-12-29T00:19:49;100524.00;;;17.38;44.69
18784;BME280;9520;50.954;6.968;2023-12-29T00:20:12;100517.22;;;17.31;44.42
18784;BME280;9520;50.954;6.968;2023-12-29T00:20:42;100516.91;;;17.37;44.24
18784;BME280;9520;50.954;6.968;2023-12-29T00:21:04;100502.81;;;17.35;44.47
18784;BME280;9520;50.954;6.968;2023-12-29T00:21:28;100513.91;;;17.44;43.90
18784;BME280;9520;50.954;6.968;2023-12-29T00:21:51;100519.19;;;17.46;43.95
18784;BME280;9520;50.954;6.968;2023-12-29T00:22:12;100510.69;;;17.17;44.76
18784;BME280;9520;50.954;6.968;2023-12-29T00:22:34;100516.31;;;17.11;44.84
18784;BME280;9520;50.954;6.968;2023-12-29T00:22:56;100511.06;;;17.10;44.72
18784;BME280;9520;50.954;6.968;2023-12-29T00:23:19;100513.38;;;17.17;44.84
18784;BME280;9520;50.954;6.968;2023-12-29T00:23:41;100510.38;;;17.25;44.84
18784;BME280;9520;50.954;6.968;2023-12-29T00:24:04;100504.97;;;17.26;44.63
18784;BME280;9520;50.954;6.968;2023-12-29T00:24:26;100507.34;;;17.33;44.52
18784;BME280;9520;50.954;6.968;2023-12-29T00:24:47;100513.28;;;17.39;44.46
18784;BME280;9520;50.954;6.968;2023-12-29T00:25:09;100513.22;;;17.41;44.26
18784;BME280;9520;50.954;6.968;2023-12-29T00:25:35;100513.78;;;17.47;nan
18784;BME280;9520;50.954;6.968;2023-12-29T00:25:57;100517.25;;;17.49;43.96
18784;BME280;9520;50.954;6.968;2023-12-29T00:26:19;100510.44;;;17.42;44.08
18784;BME280;9520;50.954;6.968;2023-12-29T00:26:47;100512.84;;;17.48;44.14
18784;BME280;9520;50.954;6.968;2023-12-29T00:27:09;100511.03;;;17.49;44.16
18784;BME280;9520;50.954;6.968;2023-12-29T00:27:31;100508.59;;;17.44;43.87
18784;BME280;9520;50.954;6.968;2023-12-29T00:27:54;100509.53;;;17.43;44.14
18784;BME280;9520;50.954;6.968;2023-12-29T00:28:16;100509.47;;;17.45;44.03
18784;BME280;9520;50.954;6.968;2023-12-29T00:28:38;100507.44;;;17.50;44.08
18784;BME280;9520;50.954;6.968;2023-12-29T00:29:01;100509.03;;;17.54;43.75
18784;BME280;9520;50.954;6.968;2023-12-29T00:29:23;100505.28;;;17.58;43.92
18784;BME280;9520;50.954;6.968;2023-12-29T00:29:46;100505.28;;;17.58;43.91
18784;BME280;9520;50.954;6.968;2023-12-29T00:30:08;100495.44;;;17.60;43.82
18784;BME280;9520;50.954;6.968;2023-12-29T00:30:30;100508.63;;;17.63;43.46
18784;BME280;9520;50.954;6.968;2023-12-29T00:31:14;100505.91;;;17.64;43.70
18784;BME280;9520;50.954;6.968;2023-12-29T00:31:36;100505.97;;;17.43;43.53
18784;BME280;9520;50.954;6.968;2023-12-29T00:31:58;100504.75;;;17.31;43.94
18784;BME280;9520;50.954;6.968;2023-12-29T00:32:21;100508.69;;;17.22;43.84
18784;BME280;9520;50.954;6.968;2023-12-29T00:32:43;100512.00;;;17.27;44.01
18784;BME280;9520;50.954;6.968;2023-12-29T00:33:06;100513.47;;;17.35;43.87
18784;BME280;9520;50.954;6.968;2023-12-29T00:33:29;100503.72;;;17.15;43.92
18784;BME280;9520;50.954;6.968;2023-12-29T00:33:53;100513.09;;;17.23;44.12
18784;BME280;9520;50.954;6.968;2023-12-29T00:34:14;100509.06;;;17.34;44.16
18784;BME280;9520;50.954;6.968;2023-12-29T00:34:36;100511.41;;;17.41;44.06
18784;BME280;9520;50.954;6.968;2023-12-29T00:34:59;100507.78;;;17.42;43.73
18784;BME280;9520;50.954;6.968;2023-12-29T00:35:21;100509.72;;;17.20;44.13
18784;BME280;9520;50.954;6.968;2023-12-29T00:35:42;100501.94;;;17.15;44.04
18784;BME280;9520;50.954;6.968;2023-12-29T00:36:06;100511.25;;;17.05;44.23
18784;BME280;9520;50.954;6.968;2023-12-29T00:36:27;100502.47;;;17.03;44.40
18784;BME280;9520;50.954;6.968;2023-12-29T00:36:49;100503.94;;;17.10;44.39
18784;BME280;9520;50.954;6.968;2023-12-29T00:37:11;100482.28;;;16.98;44.52
18784;BME280;9520;50.954;6.968;2023-12-29T00:37:32;100506.31;;;17.16;44.45
18784;BME280;9520;50.954;6.968;2023-12-29T00:37:55;100511.72;;;16.95;44.43
18784;BME280;9520;50.954;6.968;2023-12-29T00:38:18;100512.06;;;16.87;44.92
18784;BME280;9520;50.954;6.968;2023-12-29T00:38:39;100498.63;;;16.90;44.97
18784;BME280;9520;50.954;6.968;2023-12-29T00:39:01;100508.00;;;16.99;44.52
18784;BME280;9520;50.954;6.968;2023-12-29T00:39:23;100495.59;;;16.98;44.49
18784;BME280;9520;50.954;6.968;2023-12-29T00:39:50;100506.19;;;16.99;44.65
18784;BME280;9520;50.954;6.968;2023-12-29T00:40:12;100501.00;;;16.96;44.51
18784;BME280;9520;50.954;6.968;2023-12-29T00:40:34;100501.59;;;17.03;44.40
18784;BME280;9520;50.954;6.968;2023-12-29T00:40:56;100497.53;;;17.14;44.28
18784;BME280;9520;50.954;6.968;2023-12-29T00:41:17;100501.00;;;17.16;44.21
18784;BME280;9520;50.954;6.968;2023-12-29T00:41:39;100506.13;;;17.21;44.50
18784;BME280;9520;50.954;6.968;2023-12-29T00:42:01;100503.03;;;17.30;44.10
18784;BME280;9520;50.954;6.968;2023-12-29T00:42:24;100503.38;;;17.02;44.26
18784;BME280;9520;50.954;6.968;2023-12-29T00:42:46;100512.59;;;16.95;44.46
18784;BME280;9520;50.954;6.968;2023-12-29T00:43:09;100508.53;;;16.87;44.96
18784;BME280;9520;50.954;6.968;2023-12-29T00:43:31;100499.44;;;16.72;45.02
18784;BME280;9520;50.954;6.968;2023-12-29T00:43:53;100504.66;;;16.73;45.11
18784;BME280;9520;50.954;6.968;2023-12-29T00:44:16;100499.44;;;16.72;45.06
18784;BME280;9520;50.954;6.968;2023-12-29T00:44:38;100493.38;;;16.47;45.38
18784;BME280;9520;50.954;6.968;2023-12-29T00:45:00;100498.25;;;16.57;45.38
18784;BME280;9520;50.954;6.968;2023-12-29T00:45:22;100502.19;;;16.69;45.28
18784;BME280;9520;50.954;6.968;2023-12-29T00:45:43;100501.13;;;16.53;45.26
18784;BME280;9520;50.954;6.968;2023-12-29T00:46:07;100496.81;;;16.49;45.45
18784;BME280;9520;50.954;6.968;2023-12-29T00:46:29;100493.56;;;16.42;45.69
18784;BME280;9520;50.954;6.968;2023-12-29T00:46:51;100498.34;;;16.54;45.76
18784;BME280;9520;50.954;6.968;2023-12-29T00:47:14;100496.97;;;16.67;45.27
18784;BME280;9520;50.954;6.968;2023-12-29T00:47:36;100498.25;;;16.77;45.46
18784;BME280;9520;50.954;6.968;2023-12-29T00:47:58;100486.47;;;16.83;45.16
18784;BME280;9520;50.954;6.968;2023-12-29T00:48:21;100494.63;;;16.60;45.26
18784;BME280;9520;50.954;6.968;2023-12-29T00:48:43;100496.50;;;16.56;45.42
18784;BME280;9520;50.954;6.968;2023-12-29T00:49:05;100492.75;;;16.62;45.53
18784;BME280;9520;50.954;6.968;2023-12-29T00:49:27;100490.56;;;16.71;45.47
18784;BME280;9520;50.954;6.968;2023-12-29T00:49:50;100492.16;;;16.75;45.10
18784;BME280;9520;50.954;6.968;2023-12-29T00:50:12;100499.81;;;16.83;45.34
18784;BME280;9520;50.954;6.968;2023-12-29T00:50:33;100487.75;;;16.74;45.07
18784;BME280;9520;50.954;6.968;2023-12-29T00:50:55;100496.66;;;16.73;44.81
18784;BME280;9520;50.954;6.968;2023-12-29T00:51:17;100486.25;;;16.47;45.58
18784;BME280;9520;50.954;6.968;2023-12-29T00:51:39;100485.75;;;16.59;45.33
18784;BME280;9520;50.954;6.968;2023-12-29T00:52:03;100488.09;;;16.67;45.45
18784;BME280;9520;50.954;6.968;2023-12-29T00:52:25;100485.03;;;16.76;45.28
18784;BME280;9520;50.954;6.968;2023-12-29T00:52:46;100493.91;;;16.76;44.94
18784;BME280;9520;50.954;6.968;2023-12-29T00:53:08;100495.59;;;16.77;44.88
18784;BME280;9520;50.954;6.968;2023-12-29T00:53:30;100492.63;;;16.85;45.23
18784;BME280;9520;50.954;6.968;2023-12-29T00:53:54;100494.81;;;16.96;44.76
18784;BME280;9520;50.954;6.968;2023-12-29T00:54:16;100484.22;;;16.94;44.90
18784;BME280;9520;50.954;6.968;2023-12-29T00:54:40;100486.72;;;16.97;44.67
18784;BME280;9520;50.954;6.968;2023-12-29T00:55:02;100496.47;;;16.78;45.07
18784;BME280;9520;50.954;6.968;2023-12-29T00:55:24;100496.28;;;16.62;45.25
18784;BME280;9520;50.954;6.968;2023-12-29T00:55:46;100485.28;;;16.70;45.21
18784;BME280;9520;50.954;6.968;2023-12-29T00:56:10;100484.94;;;16.77;45.43
18784;BME280;9520;50.954;6.968;2023-12-29T00:56:33;100490.81;;;16.86;45.04
18784;BME280;9520;50.954;6.968;2023-12-29T00:56:54;100480.94;;;16.88;44.86
18784;BME280;9520;50.954;6.968;2023-12-29T00:57:16;100483.03;;;17.01;44.85
18784;BME280;9520;50.954;6.968;2023-12-29T00:57:38;100475.53;;;17.09;44.79
18784;BME280;9520;50.954;6.968;2023-12-29T00:57:59;100486.72;;;17.17;44.53
18784;BME280;9520;50.954;6.968;2023-12-29T00:58:24;100484.84;;;17.19;44.27
18784;BME280;9520;50.954;6.968;2023-12-29T00:58:47;100480.19;;;17.24;44.33
18784;BME280;9520;50.954;6.968;2023-12-29T00:59:09;100480.03;;;17.27;44.06
18784;BME280;9520;50.954;6.968;2023-12-29T00:59:31;100491.56;;;17.28;44.10
18784;BME280;9520;50.954;6.968;2023-12-29T00:59:52;100483.34;;;17.33;44.04
18784;BME280;9520;50.954;6.968;2023-12-29T01:00:15;100481.34;;;17.38;43.92
18784;BME280;9520;50.954;6.968;2023-12-29T01:00:37;100471.31;;;17.43;43.62
18784;BME280;9520;50.954;6.968;2023-12-29T01:00:59;100481.88;;;17.46;43.58
18784;BME280;9520;50.954;6.968;2023-12-29T01:01:21;100478.19;;;17.48;43.64
18784;BME280;9520;50.954;6.968;2023-12-29T01:01:43;100468.81;;;17.40;43.49
18784;BME280;9520;50.954;6.968;2023-12-29T01:02:07;100482.13;;;17.21;43.51
18784;BME280;9520;50.954;6.968;2023-12-29T01:02:30;100475.56;;;16.69;44.42
18784;BME280;9520;50.954;6.968;2023-12-29T01:02:51;100483.25;;;16.76;44.71
18784;BME280;9520;50.954;6.968;2023-12-29T01:03:13;100477.91;;;16.76;44.85
18784;BME280;9520;50.954;6.968;2023-12-29T01:03:35;100480.84;;;16.91;44.59
18784;BME280;9520;50.954;6.968;2023-12-29T01:03:56;100475.97;;;17.00;44.66
18784;BME280;9520;50.954;6.968;2023-12-29T01:04:18;100472.72;;;17.12;44.20
18784;BME280;9520;50.954;6.968;2023-12-29T01:04:42;100481.03;;;17.25;44.36
18784;BME280;9520;50.954;6.968;2023-12-29T01:05:05;100473.69;;;17.30;43.85
18784;BME280;9520;50.954;6.968;2023-12-29T01:05:27;100468.22;;;17.33;43.93
18784;BME280;9520;50.954;6.968;2023-12-29T01:05:49;100480.56;;;17.36;43.92
18784;BME280;9520;50.954;6.968;2023-12-29T01:06:11;100477.03;;;17.35;43.96
18784;BME280;9520;50.954;6.968;2023-12-29T01:06:33;100473.28;;;17.39;43.94
18784;BME280;9520;50.954;6.968;2023-12-29T01:06:55;100461.91;;;17.36;43.59
18784;BME280;9520;50.954;6.968;2023-12-29T01:07:17;100472.63;;;17.53;43.64
18784;BME280;9520;50.954;6.968;2023-12-29T01:07:39;100473.00;;;17.45;43.26
18784;BME280;9520;50.954;6.968;2023-12-29T01:08:00;100470.34;;;17.45;43.37
18784;BME280;9520;50.954;6.968;2023-12-29T01:08:23;100477.31;;;17.48;43.50
18784;BME280;9520;50.954;6.968;2023-12-29T01:08:44;100478.75;;;17.55;43.53
18784;BME280;9520;50.954;6.968;2023-12-29T01:09:07;100477.72;;;17.59;43.13
18784;BME280;9520;50.954;6.968;2023-12-29T01:09:30;100468.50;;;17.66;43.00
18784;BME280;9520;50.954;6.968;2023-12-29T01:09:52;100464.63;;;17.72;42.97
18784;BME280;9520;50.954;6.968;2023-12-29T01:10:14;100473.44;;;17.74;42.85
18784;BME280;9520;50.954;6.968;2023-12-29T01:10:35;100468.28;;;17.71;42.91
18784;BME280;9520;50.954;6.968;2023-12-29T01:10:57;100449.00;;;17.64;43.28
18784;BME280;9520;50.954;6.968;2023-12-29T01:11:20;100467.84;;;17.61;43.07
18784;BME280;9520;50.954;6.968;2023-12-29T01:11:41;100463.94;;;17.68;43.07
18784;BME280;9520;50.954;6.968;2023-12-29T01:12:04;100461.84;;;17.75;43.21
18784;BME280;9520;50.954;6.968;2023-12-29T01:12:26;100463.59;;;17.76;43.08
18784;BME280;9520;50.954;6.968;2023-12-29T01:12:48;100468.16;;;17.53;43.23
18784;BME280;9520;50.954;6.968;2023-12-29T01:13:11;100455.41;;;17.41;43.47
18784;BME280;9520;50.954;6.968;2023-12-29T01:13:34;100457.00;;;17.26;43.79
18784;BME280;9520;50.954;6.968;2023-12-29T01:13:56;100464.34;;;17.21;43.75
18784;BME280;9520;50.954;6.968;2023-12-29T01:14:17;100468.50;;;17.27;43.75
18784;BME280;9520;50.954;6.968;2023-12-29T01:14:39;100465.56;;;17.33;44.07
18784;BME280;9520;50.954;6.968;2023-12-29T01:15:02;100461.69;;;17.40;43.55
18784;BME280;9520;50.954;6.968;2023-12-29T01:15:24;100455.03;;;17.49;43.21
18784;BME280;9520;50.954;6.968;2023-12-29T01:15:46;100466.50;;;17.51;43.46
18784;BME280;9520;50.954;6.968;2023-12-29T01:16:08;100463.44;;;17.60;43.25
18784;BME280;9520;50.954;6.968;2023-12-29T01:16:29;100458.59;;;17.68;43.16
18784;BME280;9520;50.954;6.968;2023-12-29T01:16:51;100464.63;;;17.72;42.94
18784;BME280;9520;50.954;6.968;2023-12-29T01:17:14;100464.41;;;17.76;43.14
18784;BME280;9520;50.954;6.968;2023-12-29T01:18:15;100469.34;;;17.85;43.06
18784;BME280;9520;50.954;6.968;2023-12-29T01:18:37;100464.94;;;17.84;43.00
18784;BME280;9520;50.954;6.968;2023-12-29T01:21:04;100447.00;;;17.69;42.95
18784;BME280;9520;50.954;6.968;2023-12-29T01:24:54;100440.13;;;17.45;43.60
18784;BME280;9520;50.954;6.968;2023-12-29T01:25:58;100443.66;;;17.45;43.52
18784;BME280;9520;50.954;6.968;2023-12-29T01:28:51;100445.72;;;17.57;43.45
18784;BME280;9520;50.954;6.968;2023-12-29T01:29:14;100430.41;;;17.62;43.25
18784;BME280;9520;50.954;6.968;2023-12-29T01:29:35;100444.63;;;17.63;43.27
18784;BME280;9520;50.954;6.968;2023-12-29T01:29:58;100443.41;;;17.70;43.16
18784;BME280;9520;50.954;6.968;2023-12-29T01:30:21;100444.16;;;17.72;43.29
18784;BME280;9520;50.954;6.968;2023-12-29T01:30:43;100439.47;;;17.77;42.93
18784;BME280;9520;50.954;6.968;2023-12-29T01:31:04;100435.66;;;17.83;42.89
18784;BME280;9520;50.954;6.968;2023-12-29T01:31:29;100437.31;;;17.85;42.92
18784;BME280;9520;50.954;6.968;2023-12-29T01:31:50;100434.41;;;17.90;42.81
18784;BME280;9520;50.954;6.968;2023-12-29T01:32:12;100435.13;;;17.93;42.66
18784;BME280;9520;50.954;6.968;2023-12-29T01:32:35;100439.53;;;17.94;42.90
18784;BME280;9520;50.954;6.968;2023-12-29T01:32:57;100434.19;;;17.94;42.91
18784;BME280;9520;50.954;6.968;2023-12-29T01:33:20;100430.88;;;17.89;42.66
18784;BME280;9520;50.954;6.968;2023-12-29T01:33:43;100435.28;;;17.90;42.64
18784;BME280;9520;50.954;6.968;2023-12-29T01:34:05;100432.75;;;17.87;42.87
18784;BME280;9520;50.954;6.968;2023-12-29T01:34:26;100427.41;;;17.87;42.87
18784;BME280;9520;50.954;6.968;2023-12-29T01:34:54;100434.78;;;17.82;42.82
18784;BME280;9520;50.954;6.968;2023-12-29T01:35:16;100430.03;;;17.89;42.89
18784;BME280;9520;50.954;6.968;2023-12-29T01:35:40;100430.81;;;17.91;42.84
18784;BME280;9520;50.954;6.968;2023-12-29T01:36:02;100423.53;;;17.94;42.59
18784;BME280;9520;50.954;6.968;2023-12-29T01:36:35;100430.66;;;17.94;42.91
18784;BME280;9520;50.954;6.968;2023-12-29T01:36:58;100433.91;;;18.00;42.75
18784;BME280;9520;50.954;6.968;2023-12-29T01:37:19;100425.03;;;18.00;42.70
18784;BME280;9520;50.954;6.968;2023-12-29T01:37:42;100423.41;;;17.96;42.75
18784;BME280;9520;50.954;6.968;2023-12-29T01:38:04;100430.59;;;17.95;42.85
18784;BME280;9520;50.954;6.968;2023-12-29T01:38:25;100434.34;;;17.54;43.08
18784;BME280;9520;50.954;6.968;2023-12-29T01:38:47;100430.88;;;17.52;43.28
18784;BME280;9520;50.954;6.968;2023-12-29T01:39:09;100432.34;;;17.40;43.86
18784;BME280;9520;50.954;6.968;2023-12-29T01:39:33;100431.47;;;17.40;43.69
18784;BME280;9520;50.954;6.968;2023-12-29T01:39:54;100435.06;;;17.39;43.60
18784;BME280;9520;50.954;6.968;2023-12-29T01:40:16;100437.47;;;17.26;44.08
18784;BME280;9520;50.954;6.968;2023-12-29T01:40:43;100434.66;;;17.29;43.79
18784;BME280;9520;50.954;6.968;2023-12-29T01:41:07;100449.13;;;17.42;43.74
18784;BME280;9520;50.954;6.968;2023-12-29T01:41:29;100435.66;;;17.45;43.74
18784;BME280;9520;50.954;6.968;2023-12-29T01:41:50;100447.69;;;17.54;43.43
18784;BME280;9520;50.954;6.968;2023-12-29T01:42:12;100449.34;;;17.56;43.47
18784;BME280;9520;50.954;6.968;2023-12-29T01:42:34;100451.66;;;17.45;43.82
18784;BME280;9520;50.954;6.968;2023-12-29T01:42:56;100444.59;;;17.44;44.00
18784;BME280;9520;50.954;6.968;2023-12-29T01:43:18;100426.50;;;17.32;43.86
18784;BME280;9520;50.954;6.968;2023-12-29T01:44:15;100437.81;;;17.56;43.61
18784;BME280;9520;50.954;6.968;2023-12-29T01:44:38;100439.19;;;17.46;43.72
18784;BME280;9520;50.954;6.968;2023-12-29T01:45:00;100443.72;;;17.44;43.54
18784;BME280;9520;50.954;6.968;2023-12-29T01:45:24;100438.47;;;17.42;43.79
18784;BME280;9520;50.954;6.968;2023-12-29T01:45:47;100441.00;;;17.45;43.56
18784;BME280;9520;50.954;6.968;2023-12-29T01:46:18;100448.63;;;17.53;43.67
18784;BME280;9520;50.954;6.968;2023-12-29T01:46:40;100440.41;;;17.57;43.57
18784;BME280;9520;50.954;6.968;2023-12-29T01:47:03;100451.75;;;17.62;43.60
18784;BME280;9520;50.954;6.968;2023-12-29T01:47:26;100447.34;;;17.61;43.17
18784;BME280;9520;50.954;6.968;2023-12-29T01:47:49;100436.31;;;17.32;43.74
18784;BME280;9520;50.954;6.968;2023-12-29T01:48:11;100443.00;;;17.21;44.01
18784;BME280;9520;50.954;6.968;2023-12-29T01:48:35;100429.59;;;17.23;44.07
18784;BME280;9520;50.954;6.968;2023-12-29T01:48:57;100437.97;;;17.34;43.77
18784;BME280;9520;50.954;6.968;2023-12-29T01:49:21;100438.78;;;17.36;43.54
18784;BME280;9520;50.954;6.968;2023-12-29T01:49:45;100435.50;;;17.30;43.84
18784;BME280;9520;50.954;6.968;2023-12-29T01:50:08;100433.50;;;17.35;43.87
18784;BME280;9520;50.954;6.968;2023-12-29T01:50:30;100435.44;;;17.31;43.89
18784;BME280;9520;50.954;6.968;2023-12-29T01:50:53;100441.13;;;17.23;43.92
18784;BME280;9520;50.954;6.968;2023-12-29T01:51:17;100433.06;;;17.25;44.10
18784;BME280;9520;50.954;6.968;2023-12-29T01:51:40;100439.53;;;17.38;43.72
18784;BME280;9520;50.954;6.968;2023-12-29T01:52:04;100419.53;;;17.30;43.87
18784;BME280;9520;50.954;6.968;2023-12-29T01:52:26;100432.56;;;17.36;43.70
18784;BME280;9520;50.954;6.968;2023-12-29T01:52:50;100434.91;;;17.42;43.80
18784;BME280;9520;50.954;6.968;2023-12-29T01:53:12;100438.22;;;17.47;43.58
18784;BME280;9520;50.954;6.968;2023-12-29T01:53:34;100436.22;;;17.33;43.86
18784;BME280;9520;50.954;6.968;2023-12-29T01:54:08;100442.38;;;17.35;44.08
18784;BME280;9520;50.954;6.968;2023-12-29T01:54:34;100436.59;;;17.25;44.09
18784;BME280;9520;50.954;6.968;2023-12-29T01:54:57;100437.38;;;17.27;44.07
18784;BME280;9520;50.954;6.968;2023-12-29T01:55:20;100440.47;;;17.37;43.88
18784;BME280;9520;50.954;6.968;2023-12-29T01:55:43;100442.84;;;17.43;44.02
18784;BME280;9520;50.954;6.968;2023-12-29T01:56:06;100440.41;;;17.39;43.93
18784;BME280;9520;50.954;6.968;2023-12-29T01:56:30;100442.84;;;17.43;43.64
18784;BME280;9520;50.954;6.968;2023-12-29T01:56:52;100439.47;;;17.21;44.05
18784;BME280;9520;50.954;6.968;2023-12-29T01:57:16;100442.63;;;17.29;44.00
18784;BME280;9520;50.954;6.968;2023-12-29T01:57:39;100441.56;;;17.14;44.38
18784;BME280;9520;50.954;6.968;2023-12-29T01:58:02;100441.28;;;17.20;44.22
18784;BME280;9520;50.954;6.968;2023-12-29T01:58:24;100447.09;;;17.28;44.13
18784;BME280;9520;50.954;6.968;2023-12-29T01:58:48;100439.69;;;17.35;44.16
18784;BME280;9520;50.954;6.968;2023-12-29T01:59:10;100435.25;;;17.36;43.97
18784;BME280;9520;50.954;6.968;2023-12-29T01:59:46;100444.44;;;17.47;43.99
18784;BME280;9520;50.954;6.968;2023-12-29T02:00:11;100449.50;;;17.53;43.98
18784;BME280;9520;50.954;6.968;2023-12-29T02:00:35;100437.81;;;17.56;43.86
18784;BME280;9520;50.954;6.968;2023-12-29T02:00:57;100456.31;;;17.60;43.81
18784;BME280;9520;50.954;6.968;2023-12-29T02:01:20;100454.03;;;17.33;44.11
18784;BME280;9520;50.954;6.968;2023-12-29T02:01:43;100441.41;;;17.17;44.07
18784;BME280;9520;50.954;6.968;2023-12-29T02:02:07;100458.50;;;16.93;44.79
18784;BME280;9520;50.954;6.968;2023-12-29T02:02:29;100449.53;;;16.96;44.87
18784;BME280;9520;50.954;6.968;2023-12-29T02:02:50;100460.25;;;16.94;45.02
18784;BME280;9520;50.954;6.968;2023-12-29T02:03:12;100450.25;;;16.99;44.70
18784;BME280;9520;50.954;6.968;2023-12-29T02:03:35;100454.06;;;17.12;44.79
18784;BME280;9520;50.954;6.968;2023-12-29T02:03:58;100451.06;;;17.20;44.79
18784;BME280;9520;50.954;6.968;2023-12-29T02:04:20;100454.72;;;17.17;44.75
18784;BME280;9520;50.954;6.968;2023-12-29T02:04:42;100449.94;;;17.25;44.40
18784;BME280;9520;50.954;6.968;2023-12-29T02:05:05;100444.44;;;17.28;44.70
18784;BME280;9520;50.954;6.968;2023-12-29T02:05:29;100445.81;;;17.37;44.29
18784;BME280;9520;50.954;6.968;2023-12-29T02:05:54;100445.16;;;17.32;44.10
18784;BME280;9520;50.954;6.968;2023-12-29T02:06:17;100441.94;;;17.25;44.38
18784;BME280;9520;50.954;6.968;2023-12-29T02:06:40;100439.47;;;17.21;44.23
18784;BME280;9520;50.954;6.968;2023-12-29T02:07:02;100441.84;;;17.27;44.20
18784;BME280;9520;50.954;6.968;2023-12-29T02:07:24;100442.28;;;17.37;44.19
18784;BME280;9520;50.954;6.968;2023-12-29T02:07:51;100434.78;;;17.45;43.73
18784;BME280;9520;50.954;6.968;2023-12-29T02:08:13;100440.13;;;17.45;44.15
18784;BME280;9520;50.954;6.968;2023-12-29T02:08:35;100438.09;;;17.50;44.10
18784;BME280;9520;50.954;6.968;2023-12-29T02:08:58;100436.16;;;17.53;44.00
18784;BME280;9520;50.954;6.968;2023-12-29T02:09:20;100429.03;;;17.54;43.71
18784;BME280;9520;50.954;6.968;2023-12-29T02:09:42;100434.19;;;17.57;43.93
18784;BME280;9520;50.954;6.968;2023-12-29T02:10:07;100435.75;;;17.62;43.84
18784;BME280;9520;50.954;6.968;2023-12-29T02:10:30;100434.56;;;17.49;43.63